Time;durP1;ratioP1;P1;durP2;ratioP2;P2;SDS_P1;SDS_P2;PMS_P1;PMS_P2;Temp;Humidity;BMP_temperature;BMP_pressure;BME280_temperature;BME280_humidity;BME280_pressure;Samples;Min_cycle;Max_cycle;Signal;HPM_P1;HPM_P2
2022/01/23 00:02:15;;;;;;;;;13.75;11.50;;;;;3.31;44.87;101404.84;146606;581;46020;-73
2022/01/23 00:05:08;;;;;;;;;10.00;9.25;;;;;3.31;44.63;101407.41;146602;634;47010;-71
2022/01/23 00:08:00;;;;;;;;;20.00;16.75;;;;;3.39;44.48;101420.91;146607;574;46021;-70
2022/01/23 00:10:55;;;;;;;;;16.50;15.00;;;;;3.43;44.54;101412.78;146602;569;47010;-69
2022/01/23 00:17:32;;;;;;;;;9.50;8.00;;;;;3.57;45.17;101427.72;146603;587;46010;-71
2022/01/23 00:20:23;;;;;;;;;14.00;14.00;;;;;3.63;45.09;101445.31;146602;574;46008;-71
2022/01/23 00:23:30;;;;;;;;;11.75;10.25;;;;;3.65;44.90;101447.28;146602;569;46913;-70
2022/01/23 00:32:42;;;;;;;;;16.25;15.75;;;;;3.62;45.28;101454.69;146605;569;46020;-70
2022/01/23 00:35:35;;;;;;;;;15.25;15.25;;;;;3.62;45.40;101446.09;146599;581;47010;-72
2022/01/23 00:38:28;;;;;;;;;9.00;8.00;;;;;3.63;45.24;101460.72;146606;569;46020;-71
2022/01/23 00:41:20;;;;;;;;;6.00;6.00;;;;;3.63;44.85;101447.88;146602;565;46016;-72
2022/01/23 00:44:12;;;;;;;;;8.00;8.00;;;;;3.64;45.16;101450.56;146606;599;46021;-72
2022/01/23 00:47:11;;;;;;;;;7.25;7.25;;;;;3.66;44.62;101451.63;146604;570;46032;-72
2022/01/23 00:50:03;;;;;;;;;8.00;5.00;;;;;3.68;44.12;101459.47;146604;608;46021;-73
2022/01/23 00:52:55;;;;;;;;;5.75;5.00;;;;;3.70;44.29;101465.62;146601;636;46021;-72
2022/01/23 00:55:50;;;;;;;;;8.00;8.00;;;;;3.69;44.01;101462.16;146604;579;47008;-74
2022/01/23 00:58:42;;;;;;;;;5.50;5.25;;;;;3.70;43.15;101466.50;146603;586;46914;-75
2022/01/23 01:01:34;;;;;;;;;6.25;4.50;;;;;3.69;42.87;101474.09;146603;618;46020;-71
2022/01/23 01:04:28;;;;;;;;;8.25;7.25;;;;;3.73;43.98;101485.53;146607;601;46010;-74
2022/01/23 01:07:20;;;;;;;;;9.25;7.25;;;;;3.73;43.60;101472.69;146607;572;47008;-73
2022/01/23 01:10:21;;;;;;;;;11.00;7.75;;;;;3.70;43.05;101481.91;146605;653;46016;-75
2022/01/23 01:13:14;;;;;;;;;5.00;5.00;;;;;3.68;43.28;101483.44;146606;645;46008;-73
2022/01/23 01:16:52;;;;;;;;;9.50;7.50;;;;;3.62;43.21;101489.69;146601;612;46016;-72
2022/01/23 01:32:23;;;;;;;;;4.50;4.00;;;;;3.49;41.51;101497.94;146607;596;46008;-76
2022/01/23 01:35:24;;;;;;;;;7.50;6.25;;;;;3.50;42.44;101511.66;146606;569;46010;-76
2022/01/23 01:38:16;;;;;;;;;4.00;4.00;;;;;3.48;45.09;101516.62;146606;594;47012;-79
2022/01/23 01:41:09;;;;;;;;;7.00;4.00;;;;;3.45;47.08;101506.97;146603;621;46010;-76
2022/01/23 01:44:01;;;;;;;;;3.50;3.50;;;;;3.44;47.22;101499.16;146608;625;46021;-75
2022/01/23 01:46:54;;;;;;;;;4.75;3.50;;;;;3.46;46.65;101497.66;146604;589;46010;-75
2022/01/23 01:49:47;;;;;;;;;4.25;3.50;;;;;3.44;46.28;101502.62;146606;644;46026;-75
2022/01/23 01:52:41;;;;;;;;;3.00;3.00;;;;;3.48;45.17;101498.66;146603;593;47010;-74
2022/01/23 01:55:40;;;;;;;;;5.25;4.00;;;;;3.48;44.96;101498.66;146609;587;46020;-75
2022/01/23 02:18:13;;;;;;;;;4.00;4.00;;;;;3.43;42.92;101529.03;146602;605;46016;-76
2022/01/23 02:24:48;;;;;;;;;6.25;5.00;;;;;3.46;42.93;101513.03;146602;575;46016;-80
2022/01/23 02:55:56;;;;;;;;;5.50;5.50;;;;;3.42;40.17;101577.59;146605;611;46029;-76
2022/01/23 02:58:59;;;;;;;;;2.50;2.50;;;;;3.44;40.81;101591.47;146604;575;46020;-77
2022/01/23 03:02:27;;;;;;;;;7.25;7.25;;;;;3.43;40.72;101589.66;146603;609;46913;-77
2022/01/23 03:05:39;;;;;;;;;4.50;4.00;;;;;3.43;39.47;101592.22;146608;569;46008;-81
2022/01/23 03:08:54;;;;;;;;;6.00;4.00;;;;;3.45;40.41;101603.50;146604;577;47010;-80
2022/01/23 03:12:04;;;;;;;;;4.00;4.00;;;;;3.45;39.58;101598.38;146608;617;46008;-80
2022/01/23 03:15:03;;;;;;;;;3.25;3.00;;;;;3.43;40.04;101587.09;146607;577;46010;-80
2022/01/23 03:24:28;;;;;;;;;10.00;8.50;;;;;3.44;39.14;101612.87;146602;577;46020;-86
2022/01/23 03:30:37;;;;;;;;;12.75;10.50;;;;;3.39;39.49;101615.75;146608;595;45022;-84
2022/01/23 03:33:29;;;;;;;;;9.75;9.00;;;;;3.37;39.54;101609.59;146604;612;45914;-83
2022/01/23 03:36:21;;;;;;;;;8.00;6.75;;;;;3.34;39.79;101609.31;146603;625;46020;-80
2022/01/23 03:39:15;;;;;;;;;7.00;7.00;;;;;3.33;40.44;101612.63;146603;569;46016;-80
2022/01/23 03:42:07;;;;;;;;;20.00;15.00;;;;;3.31;39.36;101621.84;146607;602;46020;-80
2022/01/23 03:45:32;;;;;;;;;9.00;9.00;;;;;3.31;39.58;101615.06;146602;620;47010;-75
2022/01/23 03:51:38;;;;;;;;;11.75;8.25;;;;;3.24;38.08;101623.81;146603;563;46029;-75
2022/01/23 03:54:31;;;;;;;;;5.75;5.75;;;;;3.23;39.69;101632.25;146603;581;46008;-75
2022/01/23 03:57:23;;;;;;;;;5.00;4.00;;;;;3.25;39.12;101650.34;146604;664;46010;-75
2022/01/23 04:00:17;;;;;;;;;7.00;6.50;;;;;3.25;39.28;101647.78;146606;595;46020;-75
2022/01/23 04:03:09;;;;;;;;;2.25;2.25;;;;;3.29;38.93;101649.88;146604;570;45913;-76
2022/01/23 04:06:01;;;;;;;;;4.00;4.00;;;;;3.31;39.92;101665.41;146603;574;47008;-74
2022/01/23 04:08:53;;;;;;;;;3.50;3.50;;;;;3.31;39.39;101666.31;146601;590;47010;-74
2022/01/23 04:11:46;;;;;;;;;4.50;4.00;;;;;3.33;39.09;101663.87;146604;571;46021;-83
2022/01/23 04:14:47;;;;;;;;;8.00;7.00;;;;;3.34;39.67;101665.72;146602;637;46010;-76
2022/01/23 04:33:46;;;;;;;;;5.25;5.25;;;;;3.20;38.57;101651.56;146601;603;46017;-81
2022/01/23 05:02:44;;;;;;;;;5.25;4.00;;;;;3.18;38.48;101692.44;146606;600;46021;-78
2022/01/23 05:05:30;;;;;;;;;10.50;8.25;;;;;3.23;38.61;101698.00;146601;595;46010;-77
2022/01/23 05:08:22;;;;;;;;;8.75;8.75;;;;;3.26;38.77;101708.53;146604;628;46020;-77
2022/01/23 05:11:15;;;;;;;;;10.25;9.00;;;;;3.23;38.15;101700.56;146600;625;46914;-75
2022/01/23 05:14:08;;;;;;;;;10.25;7.25;;;;;3.21;38.32;101705.56;146607;582;45024;-78
2022/01/23 05:17:00;;;;;;;;;4.50;3.00;;;;;3.17;37.82;101716.25;146602;569;46012;-78
2022/01/23 05:19:53;;;;;;;;;6.25;6.25;;;;;3.15;38.74;101724.56;146604;633;46020;-77
2022/01/23 05:22:51;;;;;;;;;8.00;7.00;;;;;3.11;37.43;101723.34;146602;633;46010;-78
2022/01/23 05:25:43;;;;;;;;;10.50;9.00;;;;;3.09;38.60;101722.31;146605;632;46021;-77
2022/01/23 05:28:36;;;;;;;;;8.50;7.00;;;;;3.09;38.17;101730.00;146602;569;46016;-76
2022/01/23 05:31:28;;;;;;;;;7.00;5.25;;;;;3.10;38.67;101718.06;146604;625;46020;-75
2022/01/23 05:34:24;;;;;;;;;10.00;9.00;;;;;3.11;38.65;101733.59;146598;691;46010;-75
2022/01/23 05:37:16;;;;;;;;;9.25;9.00;;;;;3.11;39.13;101723.34;146605;622;46008;-76
2022/01/23 05:40:14;;;;;;;;;10.75;10.25;;;;;3.12;38.30;101726.84;146600;554;46017;-83
2022/01/23 05:43:06;;;;;;;;;9.25;5.75;;;;;1.97;38.98;101526.19;146607;637;46020;-87
2022/01/23 05:45:58;;;;;;;;;7.75;6.50;;;;;3.10;37.82;101725.75;146600;565;47010;-81
2022/01/23 05:48:50;;;;;;;;;12.50;10.25;;;;;3.14;38.43;101726.19;146607;726;46020;-80
2022/01/23 05:51:42;;;;;;;;;8.00;8.00;;;;;3.14;38.20;101721.06;146603;642;46016;-82
2022/01/23 05:54:35;;;;;;;;;11.00;8.75;;;;;3.10;37.66;101729.22;146604;585;46020;-85
2022/01/23 05:57:27;;;;;;;;;9.00;9.00;;;;;3.08;38.10;101730.72;146606;563;46010;-79
2022/01/23 06:00:20;;;;;;;;;14.25;11.00;;;;;3.03;37.06;101739.66;146604;597;46008;-83
2022/01/23 06:03:12;;;;;;;;;9.50;8.25;;;;;2.99;37.40;101748.69;146599;645;47012;-76
2022/01/23 06:06:04;;;;;;;;;15.50;12.00;;;;;2.99;39.19;101743.56;146606;678;46008;-77
2022/01/23 06:08:57;;;;;;;;;9.25;9.00;;;;;2.97;38.79;101752.75;146598;637;47010;-75
2022/01/23 06:11:50;;;;;;;;;14.25;12.00;;;;;2.91;37.43;101743.56;146604;582;46020;-79
2022/01/23 06:14:42;;;;;;;;;19.00;14.75;;;;;2.88;37.81;101748.41;146604;675;45033;-78
2022/01/23 06:17:35;;;;;;;;;11.75;11.75;;;;;2.78;37.42;101744.03;146605;580;46021;-76
2022/01/23 06:20:27;;;;;;;;;16.50;13.50;;;;;2.73;37.33;101743.56;146601;590;46016;-77
2022/01/23 06:23:19;;;;;;;;;21.50;20.75;;;;;2.74;38.46;101740.28;146608;572;46008;-77
2022/01/23 06:26:12;;;;;;;;;17.00;15.50;;;;;2.74;38.13;101749.59;146601;587;47010;-75
2022/01/23 06:29:08;;;;;;;;;19.25;18.00;;;;;2.73;37.94;101747.78;146605;621;46008;-77
2022/01/23 06:32:00;;;;;;;;;9.00;9.00;;;;;2.73;36.91;101751.25;146604;643;46016;-76
2022/01/23 06:34:52;;;;;;;;;13.75;12.50;;;;;2.78;37.35;101751.72;146604;639;46020;-74
2022/01/23 06:37:45;;;;;;;;;12.25;10.50;;;;;2.83;38.53;101764.97;146601;616;46016;-77
2022/01/23 06:40:37;;;;;;;;;13.25;10.25;;;;;1.74;39.24;101570.81;146600;633;46027;-78
2022/01/23 06:43:29;;;;;;;;;16.25;14.75;;;;;2.90;37.95;101760.59;146602;606;46016;-72
2022/01/23 06:46:22;;;;;;;;;20.75;15.75;;;;;2.94;39.05;101752.47;146606;616;46021;-72
2022/01/23 06:49:14;;;;;;;;;21.00;16.50;;;;;1.82;38.93;101546.94;146604;747;46016;-71
2022/01/23 06:52:07;;;;;;;;;12.50;10.25;;;;;2.93;38.04;101770.25;146604;722;46028;-70
2022/01/23 06:54:59;;;;;;;;;9.75;7.50;;;;;2.85;41.54;101787.41;146604;627;46025;-70
2022/01/23 06:57:51;;;;;;;;;9.25;7.00;;;;;2.90;43.88;101813.50;146603;586;46020;-72
2022/01/23 07:00:43;;;;;;;;;9.00;4.00;;;;;2.95;46.03;101807.16;146600;587;47010;-72
2022/01/23 07:03:35;;;;;;;;;9.25;8.00;;;;;2.98;46.66;101816.03;146604;584;46020;-72
2022/01/23 07:06:27;;;;;;;;;16.75;14.00;;;;;3.03;46.69;101798.56;146602;684;47010;-72
2022/01/23 07:09:19;;;;;;;;;8.25;7.75;;;;;3.08;48.25;101801.56;146607;564;46008;-72
2022/01/23 07:12:12;;;;;;;;;11.75;11.00;;;;;3.13;45.72;101787.56;146603;632;46010;-72
2022/01/23 07:15:04;;;;;;;;;13.25;10.25;;;;;3.32;45.20;101795.38;146606;572;46020;-72
2022/01/23 07:17:57;;;;;;;;;11.50;10.50;;;;;3.52;43.75;101799.87;146600;751;47010;-79
2022/01/23 07:20:50;;;;;;;;;12.50;12.00;;;;;3.82;44.18;101801.91;146604;579;46020;-80
2022/01/23 07:23:49;;;;;;;;;14.00;12.25;;;;;4.40;43.85;101792.87;146602;570;46010;-81
2022/01/23 07:26:42;;;;;;;;;9.50;9.00;;;;;4.99;40.40;101803.37;146604;577;46020;-75
2022/01/23 07:29:34;;;;;;;;;10.75;8.25;;;;;5.42;40.21;101800.41;146603;577;46913;-77
2022/01/23 07:32:26;;;;;;;;;12.00;9.25;;;;;5.67;39.10;101813.78;146605;644;46021;-83
2022/01/23 07:35:19;;;;;;;;;13.50;10.25;;;;;5.74;39.17;101802.34;146599;569;46010;-75
2022/01/23 07:38:16;;;;;;;;;14.25;9.75;;;;;5.88;39.23;101809.56;146606;584;46021;-72
2022/01/23 07:41:08;;;;;;;;;6.75;6.75;;;;;6.13;38.22;101806.59;146605;615;46016;-73
2022/01/23 07:44:00;;;;;;;;;14.75;9.50;;;;;6.43;38.61;101806.66;146607;577;45020;-74
2022/01/23 07:46:54;;;;;;;;;11.00;10.50;;;;;6.66;36.64;101815.41;146601;608;46017;-73
2022/01/23 07:49:49;;;;;;;;;11.00;9.75;;;;;6.80;36.21;101812.31;146605;599;46008;-74
2022/01/23 07:52:43;;;;;;;;;15.75;13.00;;;;;6.84;36.50;101814.38;146600;573;46011;-73
2022/01/23 07:55:35;;;;;;;;;12.75;12.00;;;;;6.91;37.09;101818.38;146602;600;46020;-73
2022/01/23 07:58:27;;;;;;;;;10.75;10.00;;;;;6.89;35.45;101831.13;146604;595;46016;-73
2022/01/23 08:01:20;;;;;;;;;12.25;10.50;;;;;6.87;35.71;101817.22;146604;588;47008;-72
2022/01/23 08:04:12;;;;;;;;;18.00;18.00;;;;;6.88;35.96;101834.47;146599;563;47938;-72
2022/01/23 08:07:20;;;;;;;;;17.00;15.25;;;;;6.89;36.46;101841.47;146606;576;46008;-70
2022/01/23 08:10:15;;;;;;;;;16.00;15.00;;;;;6.96;35.98;101849.72;146603;580;46010;-72
2022/01/23 08:13:07;;;;;;;;;19.00;16.00;;;;;7.02;36.72;101857.97;146605;564;46020;-71
2022/01/23 08:15:59;;;;;;;;;15.00;15.00;;;;;7.09;34.64;101860.25;146597;601;46016;-72
2022/01/23 08:18:51;;;;;;;;;22.50;20.00;;;;;6.99;34.63;101862.84;146602;573;46020;-72
2022/01/23 08:21:44;;;;;;;;;18.50;14.00;;;;;6.96;35.77;101878.97;146602;567;46026;-72
2022/01/23 08:24:36;;;;;;;;;17.50;16.00;;;;;7.05;36.17;101882.31;146605;679;47008;-73
2022/01/23 08:27:30;;;;;;;;;22.50;19.25;;;;;7.10;36.20;101880.09;146604;573;46020;-71
2022/01/23 08:30:22;;;;;;;;;21.50;19.50;;;;;7.11;36.03;101887.09;146603;565;46021;-72
2022/01/23 08:33:14;;;;;;;;;11.50;10.25;;;;;7.01;35.18;101885.44;146599;580;46026;-71
2022/01/23 08:36:07;;;;;;;;;14.50;13.75;;;;;6.76;34.93;101892.75;146601;575;46008;-71
2022/01/23 08:39:01;;;;;;;;;15.50;12.00;;;;;6.53;36.10;101890.78;146603;582;46016;-70
2022/01/23 08:41:53;;;;;;;;;25.75;24.25;;;;;6.31;36.43;101902.59;146603;675;47008;-71
2022/01/23 08:44:45;;;;;;;;;19.50;19.00;;;;;6.08;35.28;101896.34;146602;653;46011;-73
2022/01/23 08:47:38;;;;;;;;;13.00;11.00;;;;;5.92;35.45;101898.28;146603;569;46020;-71
2022/01/23 08:50:30;;;;;;;;;12.50;11.00;;;;;5.76;35.13;101896.94;146604;622;46010;-73
2022/01/23 08:53:22;;;;;;;;;25.50;23.25;;;;;5.65;36.47;101892.50;146605;564;46008;-70
2022/01/23 08:56:14;;;;;;;;;46.00;35.50;;;;;5.57;36.03;101898.59;146602;583;46913;-71
2022/01/23 08:59:07;;;;;;;;;42.50;36.00;;;;;5.57;36.41;101896.94;146607;578;46008;-70
2022/01/23 09:01:59;;;;;;;;;31.00;28.25;;;;;5.60;36.51;101905.69;146602;571;47010;-72
2022/01/23 09:04:52;;;;;;;;;48.50;40.25;;;;;5.68;37.33;101904.75;146606;622;46008;-71
2022/01/23 09:07:44;;;;;;;;;31.75;30.25;;;;;5.88;36.95;101912.53;146601;565;46016;-71
2022/01/23 09:10:53;;;;;;;;;30.25;29.00;;;;;6.09;37.47;101892.09;146602;601;46020;-72
2022/01/23 09:13:54;;;;;;;;;30.50;29.25;;;;;6.34;36.35;101883.12;146603;690;46010;-72
2022/01/23 09:16:48;;;;;;;;;26.25;20.00;;;;;6.60;36.05;101890.53;146603;587;46020;-72
2022/01/23 09:19:41;;;;;;;;;17.75;16.00;;;;;6.82;34.31;101897.50;146599;743;46016;-71
2022/01/23 09:22:33;;;;;;;;;13.00;13.00;;;;;6.85;34.91;101896.12;146604;613;46020;-71
2022/01/23 09:25:26;;;;;;;;;19.50;17.75;;;;;6.82;35.01;101898.44;146603;563;46010;-71
2022/01/23 09:28:19;;;;;;;;;20.25;18.00;;;;;6.87;36.53;101897.13;146604;589;46020;-72
2022/01/23 09:31:13;;;;;;;;;30.50;27.00;;;;;7.03;36.32;101901.00;146602;644;46016;-71
2022/01/23 09:34:06;;;;;;;;;44.50;34.00;;;;;7.00;34.54;101908.47;146604;688;46034;-71
2022/01/23 09:37:00;;;;;;;;;15.00;12.75;;;;;6.83;33.91;101887.34;146603;594;46016;-72
2022/01/23 09:39:54;;;;;;;;;31.00;27.75;;;;;6.60;34.78;101889.62;146604;642;47012;-72
2022/01/23 09:42:55;;;;;;;;;15.75;14.25;;;;;6.35;34.75;101897.81;146601;633;46030;-71
2022/01/23 09:45:50;;;;;;;;;25.25;20.25;;;;;6.15;34.75;101908.97;146605;622;46020;-73
2022/01/23 09:48:48;;;;;;;;;18.00;12.25;;;;;6.09;36.28;101895.56;146601;592;46008;-72
2022/01/23 09:51:45;;;;;;;;;24.25;22.25;;;;;6.09;36.17;101899.81;146605;573;47008;-73
2022/01/23 09:54:38;;;;;;;;;49.50;40.00;;;;;6.18;36.75;101900.63;146602;616;46016;-72
2022/01/23 09:57:33;;;;;;;;;33.75;27.50;;;;;6.38;36.00;101892.94;146603;677;46008;-72
2022/01/23 10:00:28;;;;;;;;;28.50;24.25;;;;;6.57;36.87;101887.69;146602;582;46017;-73
2022/01/23 10:03:20;;;;;;;;;19.75;19.00;;;;;6.81;35.67;101882.81;146603;584;46008;-72
2022/01/23 10:06:14;;;;;;;;;23.00;22.00;;;;;6.93;35.64;101882.19;146604;641;46016;-73
2022/01/23 10:09:08;;;;;;;;;38.25;34.00;;;;;7.23;36.20;101875.22;146604;565;46021;-73
2022/01/23 10:12:01;;;;;;;;;28.75;26.75;;;;;7.75;35.75;101875.97;146604;607;46010;-72
2022/01/23 10:14:54;;;;;;;;;13.50;10.50;;;;;8.27;36.15;101869.81;146604;588;46021;-71
2022/01/23 10:17:46;;;;;;;;;20.00;19.00;;;;;8.65;34.68;101862.47;146600;610;46016;-71
2022/01/23 10:20:37;;;;;;;;;20.25;16.00;;;;;9.04;33.19;101860.25;146606;621;46008;-73
2022/01/23 10:23:31;;;;;;;;;10.50;9.50;;;;;9.18;33.53;101852.72;146603;577;46010;-72
2022/01/23 10:26:53;;;;;;;;;23.50;21.25;;;;;9.01;34.81;101845.38;146606;580;45919;-73
2022/01/23 10:29:47;;;;;;;;;32.25;29.75;;;;;8.78;33.10;101851.38;146601;592;46911;-72
2022/01/23 10:32:39;;;;;;;;;54.00;44.00;;;;;8.58;33.07;101842.12;146603;586;46020;-73
2022/01/23 10:35:32;;;;;;;;;36.00;29.75;;;;;8.40;33.74;101840.69;146604;704;47013;-72
2022/01/23 10:38:25;;;;;;;;;31.50;27.00;;;;;8.20;32.00;101827.09;146604;645;46008;-72
2022/01/23 10:41:42;;;;;;;;;43.25;33.50;;;;;8.27;34.79;101833.63;146602;588;46016;-72
2022/01/23 10:47:58;;;;;;;;;47.00;39.00;;;;;8.43;34.76;101823.72;146598;563;46033;-73
2022/01/23 10:50:50;;;;;;;;;31.00;29.50;;;;;8.65;32.96;101818.53;146606;635;46009;-71
2022/01/23 10:54:14;;;;;;;;;30.75;28.00;;;;;8.78;32.83;101818.69;146605;632;46016;-72
2022/01/23 10:57:10;;;;;;;;;25.50;24.50;;;;;8.73;32.24;101812.25;146607;605;46008;-72
2022/01/23 11:00:03;;;;;;;;;18.50;16.25;;;;;8.59;31.86;101809.41;146603;577;46914;-68
2022/01/23 11:02:56;;;;;;;;;36.75;34.00;;;;;8.40;31.07;101802.81;146606;611;46020;-71
2022/01/23 11:05:49;;;;;;;;;35.50;31.00;;;;;8.22;31.43;101810.00;146600;601;46913;-71
2022/01/23 11:08:42;;;;;;;;;47.75;37.00;;;;;8.08;32.56;101803.78;146605;575;46020;-71
2022/01/23 11:11:49;;;;;;;;;64.00;50.00;;;;;8.18;34.19;101800.22;146602;655;46016;-71
2022/01/23 11:17:59;;;;;;;;;20.50;18.75;;;;;8.95;32.27;101764.72;146599;607;46016;-72
2022/01/23 11:20:53;;;;;;;;;36.50;32.50;;;;;9.30;29.39;101761.25;146604;762;46021;-73
2022/01/23 11:23:45;;;;;;;;;53.50;41.50;;;;;9.57;30.06;101765.84;146601;564;46012;-73
2022/01/23 11:26:38;;;;;;;;;31.50;28.50;;;;;9.85;30.35;101760.03;146604;580;46020;-72
2022/01/23 11:29:31;;;;;;;;;35.00;31.50;;;;;10.15;29.29;101763.84;146601;569;47010;-72
2022/01/23 11:32:27;;;;;;;;;37.75;33.00;;;;;10.43;29.51;101755.41;146605;618;46020;-73
2022/01/23 11:35:24;;;;;;;;;34.50;28.75;;;;;10.55;29.22;101757.12;146601;587;46913;-72
2022/01/23 11:38:19;;;;;;;;;38.00;32.75;;;;;10.63;29.48;101753.38;146604;563;46020;-72
2022/01/23 11:50:51;;;;;;;;;30.25;27.75;;;;;10.61;26.12;101723.84;146604;566;46021;-74
2022/01/23 11:53:52;;;;;;;;;33.75;31.00;;;;;10.57;27.33;101729.63;146603;565;46012;-74
2022/01/23 11:56:47;;;;;;;;;11.00;8.75;;;;;10.72;28.00;101731.47;146603;570;46020;-74
2022/01/23 11:59:42;;;;;;;;;24.50;21.25;;;;;10.94;29.35;101719.09;146601;582;46914;-73
2022/01/23 12:02:40;;;;;;;;;23.75;21.00;;;;;11.17;28.83;101720.59;146603;585;46024;-71
2022/01/23 12:05:33;;;;;;;;;32.25;30.00;;;;;11.36;27.48;101719.16;146606;564;46010;-72
2022/01/23 12:08:37;;;;;;;;;36.50;31.75;;;;;11.38;28.41;101708.09;146604;583;46020;-74
2022/01/23 12:11:36;;;;;;;;;15.75;15.25;;;;;11.31;26.15;101709.41;146600;649;47010;-73
2022/01/23 12:17:53;;;;;;;;;41.50;33.75;;;;;11.12;24.68;101690.84;146601;602;46016;-74
2022/01/23 12:20:47;;;;;;;;;31.75;28.25;;;;;11.04;26.37;101684.25;146603;566;46021;-74
2022/01/23 12:24:05;;;;;;;;;21.75;21.00;;;;;11.04;26.98;101679.97;146603;649;45913;-72
2022/01/23 12:27:43;;;;;;;;;34.75;29.75;;;;;10.08;29.51;101507.69;146606;576;45023;-72
2022/01/23 12:30:38;;;;;;;;;21.00;20.00;;;;;11.21;26.73;101677.53;146601;587;46010;-72
2022/01/23 12:33:33;;;;;;;;;14.75;14.00;;;;;11.31;26.40;101666.97;146604;604;46020;-72
2022/01/23 12:36:29;;;;;;;;;42.00;33.50;;;;;11.42;27.50;101665.03;146603;566;46010;-72
2022/01/23 12:39:23;;;;;;;;;35.50;30.50;;;;;11.61;26.24;101662.75;146601;683;46020;-71
2022/01/23 12:42:48;;;;;;;;;27.75;24.00;;;;;11.74;26.85;101660.16;146597;564;46017;-72
2022/01/23 12:46:08;;;;;;;;;19.00;17.00;;;;;11.73;26.74;101649.66;146597;692;46020;-74
2022/01/23 12:49:03;;;;;;;;;24.00;22.25;;;;;11.68;23.56;101656.25;146596;641;46016;-71
2022/01/23 12:52:17;;;;;;;;;27.75;23.00;;;;;11.58;24.15;101657.37;146598;586;47020;-73
2022/01/23 12:55:10;;;;;;;;;26.00;24.25;;;;;11.52;23.64;101663.09;146596;641;47012;-71
2022/01/23 12:58:14;;;;;;;;;29.25;28.00;;;;;11.53;25.52;101654.50;146601;584;46021;-72
2022/01/23 13:01:11;;;;;;;;;36.00;29.75;;;;;11.75;26.05;101658.44;146595;576;46016;-72
2022/01/23 13:04:06;;;;;;;;;33.25;28.75;;;;;11.99;26.75;101651.25;146599;620;46020;-72
2022/01/23 13:07:02;;;;;;;;;20.25;17.00;;;;;12.27;25.44;101639.91;146597;586;46913;-72
2022/01/23 13:10:05;;;;;;;;;36.75;30.50;;;;;12.48;23.63;101644.66;146599;576;47008;-70
2022/01/23 13:16:24;;;;;;;;;25.25;24.25;;;;;12.94;22.55;101630.78;146598;575;46022;-72
2022/01/23 13:19:46;;;;;;;;;10.75;8.75;;;;;12.90;24.19;101628.81;146600;588;45913;-72
2022/01/23 13:32:43;;;;;;;;;29.00;28.00;;;;;13.34;25.80;101628.69;146598;611;46012;-72
2022/01/23 13:35:39;;;;;;;;;29.00;27.75;;;;;13.54;25.48;101616.72;146600;626;46021;-73
2022/01/23 13:38:34;;;;;;;;;28.00;24.25;;;;;12.75;25.44;101441.47;146596;576;46012;-73
2022/01/23 13:41:36;;;;;;;;;31.75;29.25;;;;;13.92;24.09;101609.13;146604;569;46008;-72
2022/01/23 13:48:06;;;;;;;;;29.50;26.25;;;;;14.07;24.43;101603.00;146603;597;46020;-72
2022/01/23 13:57:57;;;;;;;;;32.25;29.75;;;;;14.21;24.12;101602.81;146601;662;47912;-73
2022/01/23 14:00:48;;;;;;;;;28.75;26.50;;;;;14.19;25.45;101599.22;146606;710;45020;-73
2022/01/23 14:03:41;;;;;;;;;18.00;16.50;;;;;14.20;24.35;101599.28;146600;576;47010;-73
2022/01/23 14:06:33;;;;;;;;;29.75;26.25;;;;;13.27;25.28;101458.97;146605;645;46021;-72
2022/01/23 14:09:27;;;;;;;;;28.00;26.00;;;;;14.07;25.18;101596.88;146603;579;46010;-74
2022/01/23 14:12:21;;;;;;;;;39.75;31.00;;;;;13.90;24.80;101589.94;146603;714;46008;-72
2022/01/23 14:15:20;;;;;;;;;21.75;20.50;;;;;13.73;24.10;101599.47;146601;586;47012;-72
2022/01/23 14:18:17;;;;;;;;;33.75;30.75;;;;;13.61;25.40;101591.88;146604;625;46020;-72
2022/01/23 14:21:11;;;;;;;;;30.00;29.00;;;;;12.65;25.34;101429.69;146603;631;46010;-73
2022/01/23 14:24:04;;;;;;;;;31.25;29.25;;;;;13.56;25.77;101595.97;146602;569;46020;-71
2022/01/23 14:27:17;;;;;;;;;35.75;30.00;;;;;13.46;27.29;101591.06;146601;590;46010;-72
2022/01/23 14:30:17;;;;;;;;;58.25;45.75;;;;;13.33;26.58;101585.25;146604;625;46021;-72
2022/01/23 14:33:37;;;;;;;;;37.75;33.50;;;;;13.07;26.97;101590.69;146601;702;46010;-73
2022/01/23 14:36:32;;;;;;;;;36.25;30.00;;;;;12.64;26.72;101597.00;146604;582;46020;-71
2022/01/23 14:39:28;;;;;;;;;44.50;36.25;;;;;12.26;27.85;101587.00;146602;634;46012;-72
2022/01/23 14:42:22;;;;;;;;;31.75;30.75;;;;;11.92;27.58;101598.00;146597;565;47008;-72
2022/01/23 14:45:15;;;;;;;;;27.50;26.50;;;;;11.59;26.27;101595.94;146596;575;47010;-72
2022/01/23 14:48:08;;;;;;;;;34.25;31.75;;;;;11.20;27.75;101597.88;146601;601;46021;-71
2022/01/23 14:51:04;;;;;;;;;42.50;35.50;;;;;10.89;28.42;101592.44;146597;610;46914;-71
2022/01/23 14:53:57;;;;;;;;;38.75;33.50;;;;;10.63;27.81;101589.09;146601;704;46020;-72
2022/01/23 14:56:50;;;;;;;;;33.00;30.00;;;;;10.41;28.56;101597.16;146597;628;46913;-72
2022/01/23 14:59:42;;;;;;;;;39.75;33.25;;;;;10.17;29.09;101597.28;146599;586;47008;-71
2022/01/23 15:02:35;;;;;;;;;31.50;30.50;;;;;9.96;28.93;101603.63;146597;654;46035;-72
2022/01/23 15:05:27;;;;;;;;;32.00;28.50;;;;;9.75;29.48;101591.78;146601;580;46020;-71
2022/01/23 15:08:24;;;;;;;;;31.75;29.25;;;;;9.53;29.35;101594.59;146597;593;46016;-72
2022/01/23 15:11:17;;;;;;;;;30.50;28.00;;;;;9.32;30.09;101600.09;146604;742;46021;-72
2022/01/23 15:14:11;;;;;;;;;51.00;39.00;;;;;9.14;29.43;101602.28;146597;563;46016;-72
2022/01/23 15:17:03;;;;;;;;;45.50;37.00;;;;;8.97;30.03;101602.75;146599;571;46020;-71
2022/01/23 15:19:56;;;;;;;;;53.50;44.25;;;;;8.80;30.48;101611.91;146598;600;46010;-73
2022/01/23 15:22:49;;;;;;;;;51.00;40.00;;;;;8.58;30.97;101604.28;146603;631;46020;-72
2022/01/23 15:25:41;;;;;;;;;64.00;51.00;;;;;8.41;31.11;101604.72;146598;564;47012;-72
2022/01/23 15:28:34;;;;;;;;;62.25;51.25;;;;;7.12;30.67;101420.37;146599;576;46020;-72
2022/01/23 15:31:27;;;;;;;;;59.50;48.00;;;;;8.02;31.44;101617.31;146595;604;47913;-71
2022/01/23 15:34:19;;;;;;;;;39.25;32.75;;;;;7.80;32.49;101619.06;146602;619;45920;-71
2022/01/23 15:37:13;;;;;;;;;58.75;47.00;;;;;7.59;31.72;101615.72;146596;650;47010;-71
2022/01/23 15:40:05;;;;;;;;;43.25;37.00;;;;;7.35;33.74;101610.47;146600;574;46012;-72
2022/01/23 15:42:58;;;;;;;;;36.00;32.75;;;;;5.98;33.71;101425.16;146602;564;46010;-70
2022/01/23 15:45:52;;;;;;;;;38.50;32.00;;;;;6.86;34.90;101624.62;146604;649;46020;-70
2022/01/23 15:48:46;;;;;;;;;33.75;28.50;;;;;6.59;35.39;101619.81;146601;573;46017;-72
2022/01/23 15:51:39;;;;;;;;;28.75;24.75;;;;;6.31;36.09;101626.97;146604;692;46020;-71
2022/01/23 15:54:34;;;;;;;;;27.25;24.50;;;;;6.01;36.94;101631.34;146601;642;46035;-71
2022/01/23 15:57:26;;;;;;;;;37.00;32.00;;;;;5.75;37.33;101635.19;146602;578;46021;-70
2022/01/23 16:00:21;;;;;;;;;73.00;55.25;;;;;5.58;37.66;101632.88;146600;565;46012;-72
2022/01/23 16:03:13;;;;;;;;;47.25;36.75;;;;;5.39;37.47;101643.25;146604;579;47021;-71
2022/01/23 16:06:05;;;;;;;;;42.75;36.50;;;;;5.20;36.68;101655.25;146604;667;46010;-72
2022/01/23 16:08:57;;;;;;;;;102.67;87.67;;;;;4.99;37.15;101642.34;146605;592;47008;-72
2022/01/23 16:11:50;;;;;;;;;59.25;44.00;;;;;4.83;38.16;101655.50;146604;583;47010;-72
2022/01/23 16:14:42;;;;;;;;;60.00;48.00;;;;;4.74;37.94;101661.50;146601;697;46020;-72
2022/01/23 16:17:34;;;;;;;;;65.25;50.50;;;;;4.65;38.00;101661.56;146604;581;46019;-72
2022/01/23 16:20:27;;;;;;;;;68.00;53.25;;;;;4.54;38.11;101659.69;146606;630;46008;-72
2022/01/23 16:23:19;;;;;;;;;59.00;46.50;;;;;4.40;38.10;101653.31;146600;631;47010;-72